createdAt,value
2022-10-15T00:03:16.739Z,94.50
2022-10-15T00:06:46.452Z,94.50
2022-10-15T00:10:10.397Z,94.40
2022-10-15T00:13:34.785Z,94.60
2022-10-15T00:16:59.600Z,94.50
2022-10-15T00:20:23.305Z,94.60
2022-10-15T00:23:47.970Z,94.80
2022-10-15T00:27:11.453Z,94.70
2022-10-15T00:30:35.416Z,94.80
2022-10-15T00:34:03.080Z,94.70
2022-10-15T00:37:26.903Z,94.40
2022-10-15T00:40:50.315Z,94.40
2022-10-15T00:44:51.159Z,94.50
2022-10-15T00:48:14.641Z,94.10
2022-10-15T00:51:48.450Z,94.50
2022-10-15T00:55:18.425Z,94.50
2022-10-15T00:58:42.216Z,94.60
2022-10-15T01:02:07.813Z,94.80
2022-10-15T01:05:32.149Z,94.90
2022-10-15T01:08:57.968Z,94.80
2022-10-15T01:12:40.385Z,94.70
2022-10-15T01:20:06.371Z,94.70
2022-10-15T01:24:43.913Z,94.70
2022-10-15T01:28:24.686Z,94.70
2022-10-15T01:32:04.190Z,94.70
2022-10-15T01:35:38.415Z,94.80
2022-10-15T01:39:13.566Z,94.80
2022-10-15T01:42:45.016Z,94.80
2022-10-15T01:46:18.177Z,94.80
2022-10-15T01:50:01.896Z,94.90
2022-10-15T01:53:30.132Z,95.00
2022-10-15T01:56:56.128Z,95.20
2022-10-15T02:00:19.948Z,95.10
2022-10-15T02:03:48.781Z,95.30
2022-10-15T02:07:26.488Z,95.20
2022-10-15T02:11:00.303Z,95.00
2022-10-15T02:14:35.564Z,95.20
2022-10-15T02:18:11.153Z,95.10
2022-10-15T02:21:43.663Z,95.20
2022-10-15T02:25:16.554Z,95.10
2022-10-15T02:28:48.006Z,95.20
2022-10-15T02:32:15.395Z,95.10
2022-10-15T02:35:39.465Z,95.10
2022-10-15T02:39:06.512Z,95.10
2022-10-15T02:42:32.051Z,95.10
2022-10-15T02:45:55.739Z,95.20
2022-10-15T02:49:19.523Z,95.30
2022-10-15T02:52:44.955Z,95.40
2022-10-15T02:56:08.802Z,95.50
2022-10-15T02:59:33.653Z,95.50
2022-10-15T03:02:57.170Z,95.70
2022-10-15T03:06:20.764Z,95.80
2022-10-15T03:09:45.237Z,95.80
2022-10-15T03:13:10.751Z,95.90
2022-10-15T03:16:42.911Z,95.90
2022-10-15T03:20:08.727Z,96.00
2022-10-15T03:23:34.801Z,96.10
2022-10-15T03:27:10.769Z,96.10
2022-10-15T03:30:34.444Z,96.00
2022-10-15T03:33:59.451Z,96.10
2022-10-15T03:37:23.758Z,96.00
2022-10-15T03:40:47.958Z,96.20
2022-10-15T03:44:26.705Z,96.30
2022-10-15T03:48:03.700Z,96.30
2022-10-15T03:51:31.770Z,96.50
2022-10-15T03:55:01.825Z,96.40
2022-10-15T03:58:25.804Z,96.50
2022-10-15T04:01:53.184Z,96.50
2022-10-15T04:05:16.859Z,96.30
2022-10-15T04:08:49.097Z,96.50
2022-10-15T04:12:21.591Z,96.40
2022-10-15T04:15:45.512Z,96.50
2022-10-15T04:19:11.287Z,96.40
2022-10-15T04:22:37.889Z,96.30
2022-10-15T04:26:06.216Z,96.30
2022-10-15T04:29:29.990Z,96.20
2022-10-15T04:33:05.915Z,96.20
2022-10-15T04:36:29.687Z,96.10
2022-10-15T04:40:01.333Z,96.10
2022-10-15T04:43:26.616Z,96.00
2022-10-15T04:46:55.186Z,95.90
2022-10-15T04:50:30.597Z,96.10
2022-10-15T04:54:15.261Z,96.00
2022-10-15T04:57:55.694Z,95.90
2022-10-15T05:01:26.229Z,96.10
2022-10-15T05:04:55.464Z,95.70
2022-10-15T05:08:21.018Z,95.90
2022-10-15T05:12:06.897Z,95.70
2022-10-15T05:15:31.466Z,95.80
2022-10-15T05:18:59.174Z,95.80
2022-10-15T05:22:23.333Z,95.70
2022-10-15T05:25:53.286Z,95.90
2022-10-15T05:29:20.318Z,95.90
2022-10-15T05:32:43.888Z,95.70
2022-10-15T05:36:17.352Z,95.60
2022-10-15T05:39:42.524Z,95.40
2022-10-15T05:43:07.336Z,95.60
2022-10-15T05:46:30.812Z,95.50
2022-10-15T05:49:54.643Z,95.50
2022-10-15T05:53:25.243Z,95.50
2022-10-15T05:56:52.572Z,95.40
2022-10-15T06:00:17.441Z,95.70
2022-10-15T06:03:49.066Z,95.50
2022-10-15T06:07:12.465Z,95.40
2022-10-15T06:10:39.778Z,95.50
2022-10-15T06:14:03.195Z,95.30
2022-10-15T06:17:26.945Z,95.60
2022-10-15T06:20:53.534Z,95.60
2022-10-15T06:24:16.915Z,95.40
2022-10-15T06:27:41.633Z,95.70
2022-10-15T06:31:06.402Z,95.50
2022-10-15T06:34:29.796Z,95.50
2022-10-15T06:37:53.433Z,95.60
2022-10-15T06:41:17.493Z,95.40
2022-10-15T06:44:42.572Z,95.40
2022-10-15T06:48:08.376Z,95.20
2022-10-15T06:51:31.739Z,95.20
2022-10-15T06:54:55.183Z,94.90
2022-10-15T06:58:18.593Z,95.10
2022-10-15T07:01:43.453Z,95.10
2022-10-15T07:05:08.846Z,94.90
2022-10-15T07:08:32.423Z,95.00
2022-10-15T07:11:56.297Z,95.00
2022-10-15T07:15:20.452Z,95.10
2022-10-15T07:18:45.468Z,95.10
2022-10-15T07:22:08.916Z,95.10
2022-10-15T07:25:33.160Z,95.20
2022-10-15T07:29:01.758Z,95.20
2022-10-15T07:32:25.963Z,95.00
2022-10-15T07:35:53.245Z,95.30
2022-10-15T07:39:20.880Z,95.30
2022-10-15T07:42:44.584Z,95.40
2022-10-15T07:46:08.031Z,96.10
2022-10-15T07:49:31.801Z,96.60
2022-10-15T07:52:56.808Z,96.70
2022-10-15T07:56:20.255Z,96.60
2022-10-15T07:59:43.720Z,96.70
2022-10-15T08:03:07.257Z,96.50
2022-10-15T08:06:32.447Z,96.40
2022-10-15T08:09:57.305Z,96.60
2022-10-15T08:13:23.504Z,96.00
2022-10-15T08:16:47.254Z,95.20
2022-10-15T08:20:12.344Z,95.00
2022-10-15T08:23:36.152Z,95.40
2022-10-15T08:27:01.011Z,96.10
2022-10-15T08:30:24.507Z,96.40
2022-10-15T08:33:48.373Z,97.50
2022-10-15T08:37:12.078Z,98.10
2022-10-15T08:40:35.709Z,99.00
2022-10-15T08:44:02.142Z,99.50
2022-10-15T08:47:35.632Z,99.40
2022-10-15T08:51:04.802Z,98.40
2022-10-15T08:54:28.970Z,97.70
2022-10-15T08:57:59.722Z,97.20
2022-10-15T09:01:33.131Z,96.70
2022-10-15T09:05:16.845Z,96.60
2022-10-15T09:08:53.817Z,96.40
2022-10-15T09:12:42.813Z,96.40
2022-10-15T09:16:15.496Z,96.50
2022-10-15T09:19:40.836Z,97.30
2022-10-15T09:23:04.762Z,97.30
2022-10-15T09:26:40.797Z,97.50
2022-10-15T09:30:14.640Z,97.30
2022-10-15T09:33:46.468Z,97.60
2022-10-15T09:37:20.639Z,97.60
2022-10-15T09:41:16.542Z,97.20
2022-10-15T09:44:44.050Z,97.40
2022-10-15T09:48:19.499Z,98.00
2022-10-15T09:51:54.799Z,97.80
2022-10-15T09:55:36.878Z,98.10
2022-10-15T09:59:01.961Z,98.10
2022-10-15T10:02:27.672Z,99.90
2022-10-15T10:05:52.647Z,99.90
2022-10-15T10:09:21.901Z,99.90
2022-10-15T10:12:46.695Z,99.90
2022-10-15T10:16:14.259Z,99.90
2022-10-15T10:19:39.186Z,99.90
2022-10-15T10:23:22.208Z,99.90
2022-10-15T10:26:46.542Z,99.90
2022-10-15T10:30:15.640Z,99.90
2022-10-15T10:33:47.676Z,99.90
2022-10-15T10:37:11.460Z,99.90
2022-10-15T10:40:37.500Z,99.90
2022-10-15T10:44:21.753Z,97.20
2022-10-15T10:47:47.396Z,98.40
2022-10-15T10:51:18.242Z,96.30
2022-10-15T10:58:20.148Z,97.40
2022-10-15T11:05:18.022Z,94.50
2022-10-15T11:08:57.911Z,87.40
2022-10-15T11:12:44.416Z,84.70
2022-10-15T11:16:17.203Z,83.30
2022-10-15T11:20:13.161Z,81.00
2022-10-15T11:24:06.028Z,84.60
2022-10-15T11:27:57.515Z,84.60
2022-10-15T11:31:34.319Z,83.00
2022-10-15T11:35:40.862Z,85.60
2022-10-15T11:39:34.709Z,80.30
2022-10-15T11:43:03.229Z,80.70
2022-10-15T11:46:34.594Z,82.90
2022-10-15T11:50:19.276Z,83.90
2022-10-15T11:54:18.406Z,82.60
2022-10-15T11:57:46.381Z,79.50
2022-10-15T12:01:20.205Z,84.90
2022-10-15T12:04:51.033Z,85.60
2022-10-15T12:08:16.141Z,89.10
2022-10-15T12:11:51.829Z,90.70
2022-10-15T12:15:29.637Z,85.90
2022-10-15T12:19:06.075Z,85.80
2022-10-15T12:22:39.982Z,85.30
2022-10-15T12:29:43.537Z,85.90
2022-10-15T12:33:27.636Z,86.20
2022-10-15T12:37:02.716Z,84.10
2022-10-15T12:40:31.837Z,85.00
2022-10-15T12:44:08.227Z,86.30
2022-10-15T12:47:55.839Z,85.00
2022-10-15T12:51:40.625Z,84.40
2022-10-15T12:55:28.719Z,85.10
2022-10-15T12:58:54.252Z,86.40
2022-10-15T13:02:38.856Z,88.90
2022-10-15T13:06:33.730Z,87.10
2022-10-15T13:09:57.421Z,88.20
2022-10-15T13:13:27.361Z,90.50
2022-10-15T13:16:51.584Z,90.60
2022-10-15T13:20:35.700Z,91.20
2022-10-15T13:24:00.533Z,90.30
2022-10-15T13:27:26.653Z,91.30
2022-10-15T13:30:51.324Z,90.90
2022-10-15T13:34:26.337Z,90.50
2022-10-15T13:37:50.656Z,90.00
2022-10-15T13:41:15.582Z,90.30
2022-10-15T13:44:39.304Z,89.60
2022-10-15T13:48:02.956Z,89.80
2022-10-15T13:51:34.253Z,90.50
2022-10-15T13:54:57.928Z,90.40
2022-10-15T13:58:27.700Z,90.90
2022-10-15T14:02:00.824Z,91.00
2022-10-15T14:05:25.546Z,91.40
2022-10-15T14:08:52.629Z,91.80
2022-10-15T14:12:16.322Z,91.90
2022-10-15T14:15:45.452Z,92.30
2022-10-15T14:19:17.453Z,92.40
2022-10-15T14:22:40.947Z,92.60
2022-10-15T14:26:06.350Z,93.00
2022-10-15T14:29:38.144Z,93.20
2022-10-15T14:33:03.351Z,93.60
2022-10-15T14:36:31.211Z,93.90
2022-10-15T14:40:12.435Z,94.40
2022-10-15T14:43:38.053Z,93.90
2022-10-15T14:47:04.600Z,94.40
2022-10-15T14:50:34.053Z,94.10
2022-10-15T14:53:57.605Z,94.10
2022-10-15T14:57:26.865Z,94.30
2022-10-15T15:00:58.436Z,93.80
2022-10-15T15:04:41.242Z,93.50
2022-10-15T15:08:10.956Z,93.00
2022-10-15T15:11:34.633Z,93.20
2022-10-15T15:14:58.652Z,94.20
2022-10-15T15:18:22.558Z,94.20
2022-10-15T15:21:46.724Z,94.40
2022-10-15T15:25:19.696Z,94.50
2022-10-15T15:28:43.569Z,93.40
2022-10-15T15:32:07.222Z,94.60
2022-10-15T15:35:38.810Z,94.70
2022-10-15T15:39:02.888Z,94.00
2022-10-15T15:42:28.198Z,94.40
2022-10-15T15:45:51.894Z,93.40
2022-10-15T15:49:15.349Z,93.60
2022-10-15T15:52:41.773Z,93.80
2022-10-15T15:56:07.943Z,93.40
2022-10-15T15:59:32.775Z,93.10
2022-10-15T16:02:57.955Z,92.80
2022-10-15T16:06:21.805Z,93.30
2022-10-15T16:09:45.309Z,93.30
2022-10-15T16:13:08.787Z,93.20
2022-10-15T16:16:33.661Z,92.80
2022-10-15T16:19:57.188Z,92.00
2022-10-15T16:23:20.832Z,92.30
2022-10-15T16:26:44.350Z,92.00
2022-10-15T16:30:09.080Z,92.10
2022-10-15T16:33:33.909Z,92.00
2022-10-15T16:36:57.377Z,91.60
2022-10-15T16:40:21.232Z,91.80
2022-10-15T16:43:44.699Z,91.40
2022-10-15T16:47:08.216Z,91.40
2022-10-15T16:50:33.054Z,92.00
2022-10-15T16:53:56.758Z,91.90
2022-10-15T16:57:20.231Z,92.80
2022-10-15T17:00:44.754Z,92.90
2022-10-15T17:04:08.396Z,93.20
2022-10-15T17:07:33.367Z,93.70
2022-10-15T17:10:57.989Z,92.80
2022-10-15T17:14:21.499Z,93.40
2022-10-15T17:17:45.310Z,93.80
2022-10-15T17:21:15.407Z,93.40
2022-10-15T17:24:42.208Z,93.50
2022-10-15T17:28:05.978Z,93.30
2022-10-15T17:31:29.664Z,94.30
2022-10-15T17:34:53.379Z,93.90
2022-10-15T17:38:20.474Z,94.40
2022-10-15T17:41:47.945Z,94.00
2022-10-15T17:45:12.295Z,94.00
2022-10-15T17:48:39.223Z,94.20
2022-10-15T17:52:02.820Z,93.60
2022-10-15T17:55:28.418Z,94.40
2022-10-15T17:58:54.618Z,94.30
2022-10-15T18:02:20.722Z,94.30
2022-10-15T18:05:44.880Z,94.70
2022-10-15T18:09:08.392Z,94.80
2022-10-15T18:12:32.319Z,94.70
2022-10-15T18:15:58.172Z,94.80
2022-10-15T18:19:21.883Z,94.30
2022-10-15T18:22:45.287Z,94.70
2022-10-15T18:26:14.656Z,94.60
2022-10-15T18:29:40.735Z,94.10
2022-10-15T18:33:05.879Z,94.50
2022-10-15T18:36:31.783Z,94.00
2022-10-15T18:39:55.358Z,94.10
2022-10-15T18:43:19.594Z,94.50
2022-10-15T18:46:44.957Z,94.60
2022-10-15T18:50:11.005Z,94.70
2022-10-15T18:53:37.479Z,94.20
2022-10-15T18:57:00.891Z,94.60
2022-10-15T19:00:24.349Z,94.60
2022-10-15T19:03:49.864Z,94.70
2022-10-15T19:07:14.788Z,94.50
2022-10-15T19:10:38.267Z,94.50
2022-10-15T19:14:02.857Z,94.70
2022-10-15T19:17:26.490Z,94.20
2022-10-15T19:20:50.202Z,94.30
2022-10-15T19:24:16.799Z,94.10
2022-10-15T19:27:40.207Z,93.40
2022-10-15T19:31:07.355Z,94.00
2022-10-15T19:34:34.495Z,93.80
2022-10-15T22:18:32.840Z,93.20
2022-10-15T22:21:56.198Z,93.20
